Latest Weather Observations for Hobart Airport

IDT60801

Issued at 5:41 am EST Wednesday 18 September 2019 (issued every 10 minutes, with the page automatically refreshed every 10 minutes)

About weather observations | Map of weather stations | Latest weather observations for TAS | Other Formats
Station Details ID: 094008 Name: HOBART AIRPORT Lat: -42.83 Lon: 147.50 Height: 4.0 m
Data from the previous 72 hours. | See also: Recent months at Hobart Airport
Date/Time
EST
Temp
°C
App
Temp
°C
Dew
Point
°C
Rel
Hum
%
Delta-T
°C
Wind Press
QNH
hPa
Press
MSL
hPa
Rain since
9am
mm
Dir  Spd
km/h
Gust
km/h
Spd
kts
Gust
kts
18/05:30am 4.3 -0.4 -1.5 66 2.1 WNW 13 15 7 8 1027.4 1027.5 0.2
18/05:00am 4.2 -0.1 -1.3 67 2.0 WNW 11 13 6 7 1027.5 1027.6 0.2
18/04:30am 4.7 0.2 -0.4 69 1.9 NW 13 15 7 8 1027.5 1027.6 0.2
18/04:00am 5.4 0.0 -1.1 63 2.4 NNW 17 22 9 12 1027.4 1027.5 0.2
18/03:30am 5.5 0.1 -1.6 60 2.6 NW 17 22 9 12 1027.4 1027.5 0.2
18/03:00am 5.8 1.2 -1.2 61 2.6 NW 13 17 7 9 1027.5 1027.6 0.2
18/02:30am 5.6 1.5 -0.5 65 2.3 WNW 11 15 6 8 1027.5 1027.6 0.2
18/02:00am 5.8 1.7 -0.3 65 2.3 NNW 11 15 6 8 1027.5 1027.6 0.2
18/01:30am 5.6 2.4 -0.5 65 2.3 WNW 6 9 3 5 1027.6 1027.7 0.2
18/01:00am 5.8 2.4 -0.6 63 2.4 NNW 7 11 4 6 1027.6 1027.7 0.2
18/12:30am 5.7 1.6 -0.4 65 2.3 N 11 15 6 8 1027.7 1027.8 0.2
18/12:00am 6.7 2.5 -0.7 59 2.8 NNW 11 13 6 7 1027.8 1027.9 0.2
 
Date/Time
EST
Temp
°C
App
Temp
°C
Dew
Point
°C
Rel
Hum
%
Delta-T
°C
Wind Press
QNH
hPa
Press
MSL
hPa
Rain since
9am
mm
Dir  Spd
km/h
Gust
km/h
Spd
kts
Gust
kts
17/11:30pm 7.4 2.9 -0.4 57 3.0 NNW 13 19 7 10 1027.6 1027.7 0.2
17/11:00pm 7.8 2.6 0.1 58 3.0 NW 17 20 9 11 1027.5 1027.6 0.2
17/10:30pm 8.3 2.6 -0.8 52 3.5 NW 19 24 10 13 1027.2 1027.3 0.2
17/10:00pm 8.3 3.4 -0.5 54 3.4 NW 15 17 8 9 1027.1 1027.2 0.2
17/09:30pm 8.3 3.8 -0.5 54 3.4 NW 13 20 7 11 1027.0 1027.1 0.2
17/09:00pm 9.4 4.7 -2.0 45 4.3 WNW 13 20 7 11 1026.9 1027.0 0.2
17/08:30pm 9.4 4.3 -1.9 45 4.3 WNW 15 19 8 10 1026.7 1026.8 0.2
17/08:00pm 9.3 4.7 -0.7 49 3.9 WNW 13 17 7 9 1026.3 1026.4 0.2
17/07:30pm 9.7 5.0 -1.5 45 4.3 NW 13 15 7 8 1025.8 1025.9 0.2
17/07:00pm 10.0 5.3 -1.7 44 4.5 NW 13 17 7 9 1025.3 1025.4 0.2
17/06:30pm 11.0 5.0 -1.2 42 4.8 NW 20 26 11 14 1025.0 1025.1 0.2
17/06:00pm 11.7 5.7 -3.1 35 5.6 NW 19 24 10 13 1024.7 1024.8 0.2
17/05:30pm 12.2 6.3 -1.1 39 5.3 NW 20 26 11 14 1024.8 1024.9 0.2
17/05:00pm 13.0 5.3 -2.7 33 6.1 NW 28 35 15 19 1024.5 1024.6 0.2
17/04:30pm 13.6 6.8 -1.7 34 6.1 NW 24 35 13 19 1024.4 1024.5 0.2
17/04:00pm 13.9 7.0 -2.3 32 6.4 NW 24 33 13 18 1024.3 1024.4 0.2
17/03:30pm 13.8 7.2 -2.9 31 6.5 NW 22 30 12 16 1024.2 1024.3 0.2
17/03:00pm 14.0 7.2 -1.7 34 6.3 NW 24 33 13 18 1024.3 1024.4 0.2
17/02:30pm 14.2 7.6 -3.4 29 6.8 NNW 22 32 12 17 1024.4 1024.5 0.2
17/02:00pm 14.0 6.7 -2.5 32 6.5 NW 26 35 14 19 1024.4 1024.5 0.2
17/01:30pm 13.5 5.0 -3.0 31 6.4 NW 32 37 17 20 1024.6 1024.7 0.2
17/01:00pm 13.1 5.4 -3.0 32 6.2 NW 28 37 15 20 1024.7 1024.8 0.0
17/12:30pm 13.3 5.7 -2.2 34 6.1 NW 28 41 15 22 1025.1 1025.2 0.0
17/12:00pm 13.0 7.1 -0.9 38 5.6 NW 20 32 11 17 1025.6 1025.7 0.0
17/11:30am 11.6 5.7 -1.0 41 5.0 NNW 20 30 11 16 1025.8 1025.9 0.0
17/11:00am 11.5 5.1 -1.5 40 5.1 NW 22 32 12 17 1026.0 1026.1 0.0
17/10:30am 11.0 4.2 -1.6 41 4.9 NW 24 33 13 18 1026.1 1026.2 0.0
17/10:00am 10.4 3.1 -2.6 40 4.9 NW 26 39 14 21 1026.4 1026.5 0.0
17/09:30am 9.3 3.3 -1.4 47 4.1 NW 20 30 11 16 1026.8 1026.9 0.0
17/09:00am 8.7 2.7 -1.2 50 3.8 NNW 20 30 11 16 1026.7 1026.8 0.0
17/08:30am 7.7 1.8 -1.0 54 3.3 NNW 20 30 11 16 1026.7 1026.8 0.0
17/08:00am 6.5 1.5 -1.3 57 2.9 N 15 22 8 12 1026.6 1026.7 0.0
17/07:30am 5.1 0.5 -1.2 64 2.3 NNW 13 19 7 10 1026.3 1026.4 0.0
17/07:00am 3.8 -0.5 -1.5 68 1.9 NNW 11 17 6 9 1026.1 1026.2 0.0
17/06:30am 3.1 -2.1 -2.4 67 1.9 NNW 15 19 8 10 1025.9 1026.0 0.0
17/06:00am 2.7 -2.0 -1.5 74 1.5 NNW 13 17 7 9 1025.5 1025.6 0.0
17/05:30am 2.6 -2.8 -1.3 75 1.4 NNW 17 22 9 12 1025.0 1025.1 0.0
17/05:00am 3.3 -1.8 -1.8 69 1.8 NNW 15 20 8 11 1024.8 1024.9 0.0
17/04:30am 4.0 -0.3 -1.6 67 2.0 NNW 11 15 6 8 1024.7 1024.8 0.0
17/04:00am 4.0 -0.6 -1.2 69 1.9 NNW 13 19 7 10 1024.8 1024.9 0.0
17/03:30am 4.2 -1.6 -1.6 66 2.1 NW 19 24 10 13 1024.6 1024.7 0.0
17/03:00am 4.3 -0.7 -1.2 67 2.0 NNW 15 20 8 11 1024.9 1025.0 0.0
17/02:30am 4.6 -0.9 -1.8 63 2.3 NNW 17 26 9 14 1024.8 1024.9 0.0
17/02:00am 4.1 -1.3 -1.4 67 2.0 N 17 22 9 12 1025.0 1025.1 0.0
17/01:30am 3.9 -1.1 -1.1 70 1.8 NNW 15 26 8 14 1025.1 1025.2 0.0
17/01:00am 5.0 -0.7 -1.0 65 2.2 NNW 19 28 10 15 1024.9 1025.0 0.0
17/12:30am 5.6 -1.2 -1.8 59 2.7 NW 24 33 13 18 1025.0 1025.1 0.0
17/12:00am 5.0 -0.9 -2.3 59 2.6 WNW 19 28 10 15 1024.9 1025.0 0.0
 
Date/Time
EST
Temp
°C
App
Temp
°C
Dew
Point
°C
Rel
Hum
%
Delta-T
°C
Wind Press
QNH
hPa
Press
MSL
hPa
Rain since
9am
mm
Dir  Spd
km/h
Gust
km/h
Spd
kts
Gust
kts
16/11:30pm 4.4 -1.0 -1.7 64 2.2 WNW 17 20 9 11 1024.7 1024.8 0.0
16/11:00pm 5.0 -0.8 -1.3 64 2.3 NW 19 26 10 14 1024.6 1024.7 0.0
16/10:30pm 4.7 -0.4 -1.7 63 2.3 NW 15 19 8 10 1024.5 1024.6 0.0
16/10:00pm 5.6 0.1 -1.8 59 2.7 NW 17 22 9 12 1024.2 1024.3 0.0
16/09:30pm 5.1 1.4 -3.2 55 2.9 NW 7 13 4 7 1024.1 1024.2 0.0
16/09:00pm 3.4 -0.7 -3.0 63 2.2 WNW 9 11 5 6 1023.6 1023.7 0.0
16/08:30pm 5.1 0.2 -3.6 53 3.0 SW 13 20 7 11 1023.4 1023.5 0.0
16/08:00pm 6.2 0.1 -4.2 47 3.6 WSW 19 26 10 14 1023.4 1023.5 0.0
16/07:30pm 6.4 -0.7 -4.3 46 3.7 WSW 24 28 13 15 1022.9 1023.0 0.0
16/07:00pm 6.6 0.8 -4.4 45 3.8 WSW 17 22 9 12 1022.5 1022.6 0.0
16/06:30pm 7.4 1.0 -5.1 40 4.3 WSW 20 28 11 15 1021.8 1021.8 0.0
16/06:00pm 7.8 2.3 -5.3 39 4.5 SW 15 20 8 11 1021.0 1021.0 0.0
16/05:30pm 8.5 2.2 -5.8 36 4.9 WSW 19 28 10 15 1020.5 1020.5 0.0
16/05:00pm 8.7 2.5 -4.6 38 4.7 SW 19 30 10 16 1019.8 1019.8 0.0
16/04:30pm 10.0 2.0 -5.7 32 5.5 WSW 28 37 15 20 1019.2 1019.2 0.0
16/04:00pm 10.0 2.6 -7.6 28 5.9 WSW 24 33 13 18 1018.9 1018.9 0.0
16/03:30pm 10.1 2.6 -5.0 34 5.4 WSW 26 35 14 19 1018.6 1018.6 0.0
16/03:00pm 9.7 2.8 -6.3 32 5.5 SW 22 35 12 19 1018.0 1018.0 0.0
16/02:30pm 10.7 3.4 -3.1 38 5.2 WSW 26 35 14 19 1017.6 1017.6 0.0
16/02:00pm 9.2 3.4 -1.8 46 4.2 SW 19 28 10 15 1017.5 1017.5 0.0
16/01:49pm 8.4 2.6 -1.6 49 3.8 W 19 35 10 19 1017.5 1017.5 0.0
16/01:30pm 9.7 5.4 -1.4 46 4.3 SSW 11 17 6 9 1017.1 1017.1 0.0
16/01:00pm 7.5 0.2 -0.2 58 3.0 SW 28 43 15 23 1016.9 1016.9 0.0
16/12:43pm 8.7 2.7 -1.2 50 3.8 SW 20 56 11 30 1016.7 1016.7 0.0
16/12:30pm 8.2 3.0 -0.2 55 3.3 SSW 17 26 9 14 1016.5 1016.5 0.0
16/12:00pm 8.1 0.3 1.5 63 2.7 SSW 32 37 17 20 1016.2 1016.2 0.0
16/11:30am 8.5 2.1 -1.5 49 3.8 SW 22 33 12 18 1015.8 1015.8 0.0
16/11:00am 9.4 2.9 -2.6 43 4.5 SW 22 39 12 21 1015.1 1015.1 0.0
16/10:30am 7.8 -0.1 0.8 61 2.8 SW 32 41 17 22 1014.9 1014.9 0.0
16/10:00am 8.5 0.9 -2.5 46 4.1 WSW 28 44 15 24 1014.2 1014.2 0.0
16/09:54am 8.8 1.1 -2.8 44 4.3 WSW 28 48 15 26 1014.0 1014.0 0.0
16/09:30am 8.8 2.4 -2.0 46 4.1 WSW 22 32 12 17 1013.9 1013.9 0.0
16/09:00am 8.3 2.6 -1.0 52 3.6 W 19 26 10 14 1013.6 1013.6 1.4
16/08:30am 7.9 2.4 0.3 58 3.0 SW 19 30 10 16 1012.9 1012.9 1.4
16/08:00am 6.8 0.9 -0.5 59 2.8 WSW 20 30 11 16 1012.3 1012.3 1.4
16/07:30am 5.8 -1.0 1.0 71 1.9 WSW 26 37 14 20 1011.5 1011.5 1.4
16/07:00am 6.1 -1.0 1.1 70 2.0 SW 28 35 15 19 1011.0 1011.0 1.2
16/06:30am 5.4 -1.2 1.9 78 1.4 SW 26 33 14 18 1010.0 1010.0 1.2
16/06:00am 5.8 -2.5 2.1 77 1.5 SW 35 56 19 30 1009.2 1009.2 1.2
16/05:59am 5.9 -2.1 1.9 75 1.6 SW 33 54 18 29 1009.2 1009.2 1.2
16/05:30am 6.1 -1.7 1.9 74 1.7 WSW 32 39 17 21 1007.8 1007.8 0.6
16/05:02am 6.9 0.3 2.3 72 1.9 SW 26 54 14 29 1007.1 1007.1 0.2
16/05:00am 7.3 1.4 1.7 67 2.3 SW 22 35 12 19 1006.9 1006.9 0.2
16/04:30am 8.0 -0.3 -0.4 55 3.3 W 33 48 18 26 1005.1 1005.1 0.0
16/04:00am 7.9 -1.0 0.7 60 2.9 WNW 37 50 20 27 1004.2 1004.2 0.0
16/03:30am 8.3 -1.7 0.9 59 3.0 W 43 57 23 31 1003.8 1003.8 0.0
16/03:17am 8.6 0.5 0.7 57 3.2 W 33 54 18 29 1003.3 1003.3 0.0
16/03:00am 8.4 0.4 1.9 63 2.7 WNW 33 50 18 27 1003.3 1003.3 0.0
16/02:30am 9.1 1.2 1.1 57 3.3 NW 32 41 17 22 1003.0 1003.0 0.0
16/02:00am 9.6 2.1 1.4 56 3.4 NW 30 41 16 22 1003.1 1003.1 0.0
16/01:30am 9.1 3.7 2.2 62 2.9 NW 20 26 11 14 1003.3 1003.3 0.0
16/01:00am 8.2 2.9 1.9 64 2.6 WNW 19 28 10 15 1003.7 1003.7 0.0
16/12:30am 9.2 4.7 2.1 61 3.0 NNW 15 24 8 13 1003.7 1003.7 0.0
16/12:00am 9.7 4.9 2.7 61 3.0 NNW 17 28 9 15 1004.2 1004.2 0.0
 
Date/Time
EST
Temp
°C
App
Temp
°C
Dew
Point
°C
Rel
Hum
%
Delta-T
°C
Wind Press
QNH
hPa
Press
MSL
hPa
Rain since
9am
mm
Dir  Spd
km/h
Gust
km/h
Spd
kts
Gust
kts
15/11:30pm 10.2 5.8 2.5 59 3.3 NNW 15 26 8 14 1004.1 1004.1 0.0
15/11:00pm 10.9 6.0 1.7 53 3.9 NNW 17 26 9 14 1004.9 1004.9 0.0
15/10:30pm 10.8 6.6 1.6 53 3.9 NW 13 22 7 12 1005.5 1005.5 0.0
15/10:00pm 9.9 6.2 2.4 59 3.2 NNW 11 15 6 8 1005.6 1005.6 0.0
15/09:30pm 11.1 5.9 0.4 47 4.4 WNW 17 22 9 12 1006.2 1006.2 0.0
15/09:00pm 12.1 5.9 0.0 43 5.0 NW 22 32 12 17 1006.2 1006.2 0.0
15/08:30pm 12.3 6.3 -1.8 37 5.6 NW 20 30 11 16 1006.5 1006.5 0.0
15/08:00pm 12.1 7.1 -1.4 39 5.4 W 15 20 8 11 1007.3 1007.3 0.0
15/07:30pm 12.7 8.0 -1.5 37 5.7 W 13 17 7 9 1007.6 1007.6 0.0
15/07:00pm 12.1 9.6 4.7 60 3.4 SSW 7 11 4 6 1007.0 1007.0 0.0
15/06:30pm 12.3 8.9 5.7 64 3.1 SSW 13 17 7 9 1006.6 1006.6 0.0
15/06:00pm 12.7 8.9 5.7 62 3.3 SSE 15 19 8 10 1006.4 1006.4 0.0
15/05:30pm 15.1 11.5 0.4 36 6.3 NW 9 13 5 7 1006.6 1006.6 0.0
15/05:00pm 15.7 11.2 -0.3 33 6.8 NNW 13 19 7 10 1006.4 1006.4 0.0
15/04:30pm 16.1 12.0 -0.4 32 7.0 NW 11 19 6 10 1006.6 1006.6 0.0
15/04:00pm 16.2 11.5 0.9 35 6.7 NW 15 24 8 13 1006.8 1006.8 0.0
15/03:30pm 16.4 11.6 0.2 33 7.0 NNW 15 20 8 11 1007.0 1007.0 0.0
15/03:00pm 16.6 11.9 -1.7 28 7.6 NW 13 20 7 11 1007.1 1007.1 0.0
15/02:30pm 17.0 11.0 -1.7 28 7.8 WNW 20 30 11 16 1007.4 1007.4 0.0
15/02:00pm 16.7 10.6 -2.3 27 7.8 WNW 20 28 11 15 1007.8 1007.8 0.0
15/01:30pm 16.4 8.6 -3.8 25 8.0 NW 28 35 15 19 1007.8 1007.8 0.0
15/01:00pm 16.5 9.2 -2.7 26 7.8 WNW 26 39 14 21 1008.1 1008.1 0.0
15/12:30pm 16.0 8.7 -2.9 27 7.6 WNW 26 35 14 19 1008.6 1008.6 0.0
15/12:00pm 16.3 9.8 -2.3 28 7.6 WNW 22 33 12 18 1009.2 1009.2 0.0
15/11:30am 16.0 8.4 -2.5 28 7.5 WNW 28 41 15 22 1009.5 1009.5 0.0
15/11:00am 15.3 7.2 -3.1 28 7.3 WNW 30 35 16 19 1009.4 1009.4 0.0
15/10:30am 15.6 8.0 -2.5 28 7.3 WNW 28 37 15 20 1009.4 1009.4 0.0
15/10:00am 15.2 8.7 -2.8 29 7.2 WNW 22 37 12 20 1009.7 1009.7 0.0
15/09:30am 14.8 8.2 -3.2 28 7.1 W 22 43 12 23 1009.5 1009.5 0.0
15/09:00am 14.9 8.6 -4.3 26 7.4 WNW 20 30 11 16 1009.9 1009.9 0.0
15/08:30am 15.0 7.4 -6.0 23 7.8 WNW 26 33 14 18 1009.5 1009.5 0.0
15/08:10am 15.0 6.3 -5.5 24 7.7 WNW 32 50 17 27 1009.2 1009.2 0.0
15/08:00am 15.2 6.1 -7.6 20 8.2 WNW 33 48 18 26 1008.9 1008.9 0.0
15/07:30am 15.4 6.3 -3.3 27 7.4 W 35 46 19 25 1008.4 1008.4 0.0
15/07:00am 15.2 7.2 1.5 39 6.0 W 33 46 18 25 1008.1 1008.1 0.0
15/06:30am 15.6 7.9 3.4 44 5.6 WNW 33 48 18 26 1007.8 1007.8 0.0
15/06:26am 15.6 8.9 3.7 45 5.5 WNW 28 48 15 26 1007.7 1007.7 0.0
15/06:00am 14.6 8.8 6.3 57 4.0 WNW 26 35 14 19 1007.3 1007.3 0.0

Other formats

Comma delimited format used in spreadsheet applications
http://www.bom.gov.au/fwo/IDT60801/IDT60801.94975.axf

JavaScript Object Notation format (JSON) in row-major order
http://www.bom.gov.au/fwo/IDT60801/IDT60801.94975.json

Data quality

Most of these data are generated automatically and are frequently updated. Quality checks on data are not normally performed. It is possible for incorrect values to appear. Refer to information at About Latest Weather Observations and please check the disclaimer before using these data.